createdAt,value
2018-10-17T00:01:44.755Z,14.23
2018-10-17T00:04:14.373Z,16.70
2018-10-17T00:06:43.569Z,15.60
2018-10-17T00:09:13.007Z,16.83
2018-10-17T00:11:42.173Z,18.10
2018-10-17T00:14:12.014Z,16.10
2018-10-17T00:16:41.029Z,16.40
2018-10-17T00:19:10.319Z,16.37
2018-10-17T00:21:39.298Z,19.53
2018-10-17T00:24:08.416Z,15.43
2018-10-17T00:26:37.530Z,15.73
2018-10-17T00:29:06.678Z,16.87
2018-10-17T00:31:35.685Z,16.10
2018-10-17T00:34:04.663Z,16.50
2018-10-17T00:36:33.656Z,14.83
2018-10-17T00:39:02.805Z,15.67
2018-10-17T00:41:32.337Z,17.60
2018-10-17T00:44:01.440Z,16.53
2018-10-17T00:46:30.418Z,16.30
2018-10-17T00:48:59.721Z,16.07
2018-10-17T00:51:28.906Z,17.53
2018-10-17T00:53:58.288Z,14.77
2018-10-17T00:56:27.207Z,15.23
2018-10-17T00:59:08.161Z,16.27
2018-10-17T01:01:37.783Z,15.93
2018-10-17T01:04:07.644Z,18.13
2018-10-17T01:06:37.107Z,17.30
2018-10-17T01:09:09.366Z,17.23
2018-10-17T01:11:38.892Z,17.80
2018-10-17T01:14:08.465Z,18.00
2018-10-17T01:16:37.579Z,18.77
2018-10-17T01:19:07.037Z,20.50
2018-10-17T01:21:36.522Z,19.37
2018-10-17T01:24:05.902Z,18.13
2018-10-17T01:26:35.310Z,17.27
2018-10-17T01:29:04.432Z,20.10
2018-10-17T01:31:33.476Z,19.70
2018-10-17T01:34:02.531Z,19.70
2018-10-17T01:36:31.608Z,19.67
2018-10-17T01:39:00.737Z,17.10
2018-10-17T01:41:29.754Z,18.50
2018-10-17T01:43:58.766Z,18.77
2018-10-17T01:46:28.140Z,17.03
2018-10-17T01:48:57.130Z,24.63
2018-10-17T01:51:26.570Z,18.60
2018-10-17T01:53:56.555Z,17.03
2018-10-17T01:56:25.537Z,18.90
2018-10-17T01:58:54.794Z,18.43
2018-10-17T02:01:23.877Z,20.20
2018-10-17T02:03:52.881Z,18.77
2018-10-17T02:06:21.844Z,15.83
2018-10-17T02:08:50.811Z,16.80
2018-10-17T02:11:20.072Z,16.80
2018-10-17T02:13:49.058Z,17.23
2018-10-17T02:16:18.116Z,17.67
2018-10-17T02:18:47.097Z,19.20
2018-10-17T02:21:16.115Z,19.30
2018-10-17T02:23:45.261Z,18.93
2018-10-17T02:26:14.272Z,17.27
2018-10-17T02:28:43.278Z,19.90
2018-10-17T02:31:12.263Z,18.53
2018-10-17T02:33:41.348Z,17.90
2018-10-17T02:36:10.339Z,17.83
2018-10-17T02:38:39.335Z,18.67
2018-10-17T02:41:08.375Z,18.27
2018-10-17T02:43:37.433Z,17.77
2018-10-17T02:46:07.015Z,17.83
2018-10-17T02:48:36.854Z,18.47
2018-10-17T02:51:06.003Z,18.53
2018-10-17T02:56:32.535Z,18.27
2018-10-17T03:01:45.782Z,15.57
2018-10-17T03:04:17.111Z,18.17
2018-10-17T03:06:49.438Z,18.80
2018-10-17T03:09:35.544Z,18.20
2018-10-17T03:12:08.128Z,16.77
2018-10-17T03:14:41.869Z,17.43
2018-10-17T03:19:55.899Z,18.10
2018-10-17T03:22:28.786Z,17.27
2018-10-17T03:25:06.643Z,17.20
2018-10-17T03:27:40.341Z,18.13
2018-10-17T03:30:12.089Z,16.67
2018-10-17T03:32:43.979Z,16.37
2018-10-17T03:35:15.370Z,17.90
2018-10-17T03:40:29.410Z,16.97
2018-10-17T03:43:00.916Z,17.17
2018-10-17T03:45:33.117Z,16.50
2018-10-17T03:48:04.808Z,16.73
2018-10-17T03:50:36.595Z,18.70
2018-10-17T03:53:10.411Z,17.43
2018-10-17T03:55:41.421Z,18.37
2018-10-17T03:58:14.121Z,16.57
2018-10-17T04:00:45.369Z,16.87
2018-10-17T04:03:16.967Z,19.00
2018-10-17T04:05:48.829Z,19.70
2018-10-17T04:08:20.748Z,17.87
2018-10-17T04:10:51.850Z,18.27
2018-10-17T04:13:26.179Z,18.37
2018-10-17T04:16:00.888Z,19.50
2018-10-17T04:18:33.877Z,19.40
2018-10-17T04:21:07.196Z,17.33
2018-10-17T04:23:39.669Z,19.53
2018-10-17T04:26:11.779Z,18.80
2018-10-17T04:28:50.476Z,19.23
2018-10-17T04:31:24.359Z,19.07
2018-10-17T04:34:14.194Z,18.83
2018-10-17T04:36:44.900Z,20.83
2018-10-17T04:39:16.467Z,18.80
2018-10-17T04:41:49.225Z,19.87
2018-10-17T04:44:21.169Z,17.57
2018-10-17T04:46:56.287Z,18.83
2018-10-17T04:49:27.751Z,19.23
2018-10-17T04:51:59.666Z,18.63
2018-10-17T04:54:31.808Z,18.17
2018-10-17T04:57:05.399Z,18.13
2018-10-17T04:59:42.627Z,19.13
2018-10-17T05:02:11.631Z,17.90
2018-10-17T05:04:41.021Z,18.80
2018-10-17T05:07:09.964Z,19.47
2018-10-17T05:09:38.964Z,18.70
2018-10-17T05:12:08.121Z,18.63
2018-10-17T05:14:37.202Z,18.80
2018-10-17T05:17:06.704Z,19.37
2018-10-17T05:19:35.699Z,21.13
2018-10-17T05:22:04.918Z,23.13
2018-10-17T05:24:33.955Z,21.63
2018-10-17T05:27:02.973Z,20.63
2018-10-17T05:29:31.914Z,17.90
2018-10-17T05:32:01.097Z,19.97
2018-10-17T05:34:30.080Z,20.27
2018-10-17T05:36:59.365Z,21.87
2018-10-17T05:39:28.673Z,19.83
2018-10-17T05:41:57.732Z,17.20
2018-10-17T05:44:27.001Z,19.37
2018-10-17T05:46:56.100Z,19.83
2018-10-17T05:49:25.088Z,19.57
2018-10-17T05:51:54.132Z,18.07
2018-10-17T05:54:23.158Z,17.93
2018-10-17T05:56:52.337Z,19.07
2018-10-17T05:59:21.346Z,20.50
2018-10-17T06:01:51.058Z,19.17
2018-10-17T06:04:20.224Z,19.13
2018-10-17T06:06:49.297Z,18.30
2018-10-17T06:09:18.466Z,20.07
2018-10-17T06:11:48.029Z,19.93
2018-10-17T06:14:17.829Z,21.73
2018-10-17T06:16:47.396Z,21.83
2018-10-17T06:19:16.721Z,18.80
2018-10-17T06:21:45.735Z,21.77
2018-10-17T06:24:14.792Z,20.70
2018-10-17T06:26:43.814Z,19.73
2018-10-17T06:29:17.200Z,22.17
2018-10-17T06:31:48.634Z,26.23
2018-10-17T06:34:20.794Z,23.33
2018-10-17T06:36:52.598Z,24.47
2018-10-17T06:39:25.029Z,23.40
2018-10-17T06:41:56.800Z,26.60
2018-10-17T06:44:28.196Z,25.57
2018-10-17T06:47:01.677Z,21.50
2018-10-17T06:49:33.451Z,21.43
2018-10-17T06:52:06.770Z,26.10
2018-10-17T06:54:38.316Z,25.07
2018-10-17T07:02:32.281Z,19.30
2018-10-17T07:05:04.959Z,21.80
2018-10-17T07:07:36.959Z,22.77
2018-10-17T07:10:09.390Z,20.07
2018-10-17T07:12:43.104Z,20.87
2018-10-17T07:15:14.592Z,24.23
2018-10-17T07:17:45.929Z,23.57
2018-10-17T07:20:17.550Z,20.30
2018-10-17T07:22:48.591Z,20.40
2018-10-17T07:25:18.019Z,22.00
2018-10-17T07:27:47.157Z,25.87
2018-10-17T07:30:18.080Z,23.80
2018-10-17T07:32:47.234Z,23.30
2018-10-17T07:35:16.371Z,24.23
2018-10-17T07:37:45.666Z,21.77
2018-10-17T07:40:14.771Z,22.80
2018-10-17T07:42:44.219Z,22.00
2018-10-17T07:45:13.679Z,22.50
2018-10-17T07:47:42.724Z,25.23
2018-10-17T07:50:12.281Z,19.83
2018-10-17T07:52:41.355Z,23.47
2018-10-17T07:55:12.243Z,17.90
2018-10-17T07:57:41.474Z,21.40
2018-10-17T08:00:12.830Z,18.93
2018-10-17T08:02:42.273Z,22.03
2018-10-17T08:05:11.670Z,18.90
2018-10-17T08:07:41.055Z,21.13
2018-10-17T08:10:11.200Z,21.87
2018-10-17T08:12:40.532Z,20.47
2018-10-17T08:15:10.327Z,20.60
2018-10-17T08:17:39.663Z,19.73
2018-10-17T08:20:10.535Z,22.63
2018-10-17T08:22:40.243Z,17.87
2018-10-17T08:25:11.317Z,19.27
2018-10-17T08:27:47.110Z,18.10
2018-10-17T08:30:16.776Z,20.03
2018-10-17T08:32:46.141Z,20.43
2018-10-17T08:35:15.585Z,19.47
2018-10-17T08:37:45.260Z,22.40
2018-10-17T08:40:14.017Z,19.37
2018-10-17T08:42:43.185Z,19.00
2018-10-17T08:45:12.395Z,17.77
2018-10-17T08:47:41.564Z,21.40
2018-10-17T08:50:11.033Z,18.00
2018-10-17T08:52:40.228Z,19.37
2018-10-17T08:55:09.945Z,16.63
2018-10-17T08:57:39.578Z,18.43
2018-10-17T09:00:14.539Z,19.67
2018-10-17T09:02:46.780Z,19.40
2018-10-17T09:05:18.196Z,19.47
2018-10-17T09:07:50.070Z,17.23
2018-10-17T09:13:14.061Z,17.87
2018-10-17T09:15:46.023Z,19.27
2018-10-17T09:18:19.595Z,16.63
2018-10-17T09:20:51.659Z,15.53
2018-10-17T09:23:22.691Z,18.33
2018-10-17T09:25:54.260Z,15.47
2018-10-17T09:28:25.721Z,16.37
2018-10-17T09:30:57.628Z,17.07
2018-10-17T09:33:29.315Z,15.00
2018-10-17T09:36:01.306Z,15.30
2018-10-17T09:38:32.457Z,14.53
2018-10-17T09:41:05.254Z,14.40
2018-10-17T09:43:37.088Z,14.50
2018-10-17T09:46:08.602Z,14.07
2018-10-17T09:48:39.945Z,14.37
2018-10-17T09:51:14.232Z,13.37
2018-10-17T09:53:45.969Z,14.37
2018-10-17T09:56:19.175Z,13.63
2018-10-17T09:58:52.907Z,13.43
2018-10-17T10:04:24.966Z,12.20
2018-10-17T10:06:57.366Z,11.95
2018-10-17T10:09:29.164Z,12.33
2018-10-17T10:11:59.875Z,12.63
2018-10-17T10:14:33.093Z,12.43
2018-10-17T10:17:05.561Z,13.30
2018-10-17T10:19:55.467Z,12.05
2018-10-17T10:22:42.566Z,11.83
2018-10-17T10:25:33.977Z,12.15
2018-10-17T10:28:23.176Z,11.88
2018-10-17T10:30:54.848Z,11.83
2018-10-17T10:33:26.198Z,11.78
2018-10-17T10:35:57.150Z,11.93
2018-10-17T10:38:30.739Z,12.33
2018-10-17T10:41:04.307Z,12.00
2018-10-17T10:43:35.471Z,10.45
2018-10-17T10:46:08.292Z,11.20
2018-10-17T10:48:43.919Z,12.23
2018-10-17T10:51:16.168Z,12.00
2018-10-17T10:53:46.797Z,11.10
2018-10-17T10:56:18.648Z,12.10
2018-10-17T10:58:54.040Z,12.63
2018-10-17T11:01:26.028Z,11.73
2018-10-17T11:03:58.946Z,10.95
2018-10-17T11:06:33.012Z,11.43
2018-10-17T11:12:07.345Z,11.30
2018-10-17T11:14:39.087Z,11.93
2018-10-17T11:17:16.708Z,11.00
2018-10-17T11:19:50.547Z,11.12
2018-10-17T11:22:23.066Z,11.28
2018-10-17T11:24:57.566Z,11.63
2018-10-17T11:27:32.946Z,10.95
2018-10-17T11:30:05.867Z,10.50
2018-10-17T11:32:38.793Z,10.63
2018-10-17T11:37:58.938Z,10.50
2018-10-17T11:40:33.085Z,10.05
2018-10-17T11:43:04.395Z,9.90
2018-10-17T12:51:44.902Z,9.65
2018-10-17T13:00:58.389Z,9.35
2018-10-17T13:03:34.291Z,9.05
2018-10-17T13:06:13.935Z,9.15
2018-10-17T13:25:46.279Z,9.18
2018-10-17T13:28:15.554Z,9.63
2018-10-17T13:30:44.967Z,9.00
2018-10-17T13:33:14.604Z,9.05
2018-10-17T13:35:44.073Z,9.30
2018-10-17T13:38:13.343Z,8.33
2018-10-17T13:40:42.696Z,8.45
2018-10-17T13:43:12.318Z,8.28
2018-10-17T13:45:41.796Z,8.45
2018-10-17T13:48:11.462Z,8.43
2018-10-17T13:50:41.356Z,8.33
2018-10-17T13:53:10.654Z,8.13
2018-10-17T13:55:39.900Z,8.70
2018-10-17T13:58:09.436Z,9.33
2018-10-17T14:00:38.633Z,9.13
2018-10-17T14:03:08.164Z,7.90
2018-10-17T14:05:37.715Z,7.80
2018-10-17T14:08:07.234Z,7.28
2018-10-17T14:10:36.408Z,7.40
2018-10-17T14:13:06.123Z,9.13
2018-10-17T14:15:35.612Z,8.03
2018-10-17T14:18:05.363Z,8.65
2018-10-17T14:20:35.006Z,10.65
2018-10-17T14:23:04.586Z,7.85
2018-10-17T14:25:34.695Z,9.18
2018-10-17T14:28:04.191Z,7.97
2018-10-17T14:30:33.813Z,7.33
2018-10-17T14:33:03.052Z,7.87
2018-10-17T14:35:32.584Z,7.65
2018-10-17T14:38:02.117Z,8.23
2018-10-17T14:40:31.262Z,8.63
2018-10-17T14:43:00.606Z,8.38
2018-10-17T14:45:29.736Z,8.43
2018-10-17T14:47:59.111Z,10.50
2018-10-17T14:50:28.696Z,9.17
2018-10-17T14:52:58.315Z,11.05
2018-10-17T14:55:27.787Z,11.95
2018-10-17T14:57:57.177Z,8.73
2018-10-17T15:00:26.870Z,8.45
2018-10-17T15:02:56.137Z,12.43
2018-10-17T15:05:25.483Z,8.67
2018-10-17T15:07:55.135Z,9.00
2018-10-17T15:10:24.627Z,8.23
2018-10-17T15:12:53.985Z,8.00
2018-10-17T15:15:23.326Z,11.23
2018-10-17T15:17:52.680Z,7.77
2018-10-17T15:20:21.953Z,7.17
2018-10-17T15:22:51.225Z,9.33
2018-10-17T15:25:20.718Z,12.67
2018-10-17T15:27:50.320Z,9.50
2018-10-17T15:30:19.868Z,8.07
2018-10-17T15:32:49.330Z,7.30
2018-10-17T15:35:18.680Z,12.83
2018-10-17T15:37:48.074Z,10.63
2018-10-17T15:40:17.265Z,9.30
2018-10-17T15:42:46.616Z,8.23
2018-10-17T15:45:16.121Z,8.80
2018-10-17T15:47:45.344Z,7.87
2018-10-17T15:50:14.695Z,7.97
2018-10-17T15:52:44.072Z,10.33
2018-10-17T15:55:13.470Z,12.20
2018-10-17T15:57:42.869Z,10.87
2018-10-17T16:00:12.796Z,9.17
2018-10-17T16:02:42.122Z,10.77
2018-10-17T16:05:12.233Z,8.03
2018-10-17T16:07:41.936Z,8.50
2018-10-17T16:10:11.175Z,10.60
2018-10-17T16:12:40.490Z,11.27
2018-10-17T16:15:09.949Z,7.73
2018-10-17T16:17:39.252Z,10.50
2018-10-17T16:20:11.104Z,9.13
2018-10-17T16:22:41.643Z,11.37
2018-10-17T16:25:10.835Z,10.00
2018-10-17T16:27:40.169Z,10.73
2018-10-17T16:30:11.598Z,14.13
2018-10-17T16:32:40.833Z,8.93
2018-10-17T16:35:10.325Z,14.33
2018-10-17T16:37:39.899Z,11.80
2018-10-17T16:40:10.127Z,12.37
2018-10-17T16:42:39.250Z,10.67
2018-10-17T16:45:09.736Z,11.73
2018-10-17T16:47:38.937Z,11.43
2018-10-17T16:50:08.310Z,12.43
2018-10-17T16:52:37.736Z,12.70
2018-10-17T16:55:08.014Z,16.27
2018-10-17T16:57:37.488Z,16.57
2018-10-17T17:00:08.279Z,13.83
2018-10-17T17:02:38.278Z,16.47
2018-10-17T17:05:11.760Z,14.73
2018-10-17T17:07:41.240Z,14.93
2018-10-17T17:10:16.878Z,19.97
2018-10-17T17:12:46.089Z,16.30
2018-10-17T17:15:15.276Z,18.73
2018-10-17T17:17:44.350Z,17.07
2018-10-17T17:20:13.490Z,17.90
2018-10-17T17:22:42.734Z,17.87
2018-10-17T17:25:11.989Z,15.20
2018-10-17T17:27:43.258Z,15.13
2018-10-17T17:30:14.980Z,26.50
2018-10-17T17:32:44.475Z,18.63
2018-10-17T17:35:17.007Z,16.63
2018-10-17T17:37:46.040Z,15.50
2018-10-17T17:40:30.939Z,16.87
2018-10-17T17:49:05.683Z,16.83
2018-10-17T17:54:46.323Z,16.07
2018-10-17T17:57:25.305Z,21.40
2018-10-17T17:59:59.974Z,21.50
2018-10-17T18:02:32.379Z,20.80
2018-10-17T18:05:01.834Z,21.73
2018-10-17T18:07:31.106Z,18.00
2018-10-17T18:10:00.324Z,20.83
2018-10-17T18:12:29.544Z,20.23
2018-10-17T18:14:58.654Z,20.57
2018-10-17T18:17:30.135Z,27.97
2018-10-17T18:20:00.217Z,23.67
2018-10-17T18:22:29.691Z,22.33
2018-10-17T18:24:58.779Z,24.73
2018-10-17T18:27:27.971Z,24.30
2018-10-17T18:29:59.081Z,21.00
2018-10-17T18:32:28.358Z,23.57
2018-10-17T18:34:57.621Z,25.30
2018-10-17T18:37:26.955Z,20.83
2018-10-17T18:39:56.082Z,23.37
2018-10-17T18:42:25.199Z,28.40
2018-10-17T18:44:54.397Z,24.90
2018-10-17T18:47:24.453Z,28.13
2018-10-17T18:49:53.751Z,24.83
2018-10-17T18:52:22.871Z,27.30
2018-10-17T18:55:07.106Z,28.80
2018-10-17T18:57:36.413Z,28.20
2018-10-17T19:00:11.115Z,37.80
2018-10-17T19:02:42.731Z,30.90
2018-10-17T19:05:11.865Z,38.43
2018-10-17T19:07:41.038Z,36.77
2018-10-17T19:10:10.097Z,40.43
2018-10-17T19:12:39.318Z,42.80
2018-10-17T19:15:08.580Z,41.43
2018-10-17T19:17:39.002Z,45.53
2018-10-17T19:20:08.203Z,44.57
2018-10-17T19:22:37.428Z,50.80
2018-10-17T19:25:08.670Z,47.80
2018-10-17T19:27:37.919Z,48.07
2018-10-17T19:30:08.393Z,46.17
2018-10-17T19:32:38.812Z,52.00
2018-10-17T19:35:10.024Z,50.93
2018-10-17T19:37:39.174Z,58.87
2018-10-17T19:40:09.615Z,51.53
2018-10-17T19:42:38.983Z,53.37
2018-10-17T19:45:09.419Z,48.97
2018-10-17T19:47:38.838Z,48.40
2018-10-17T19:50:08.835Z,60.80
2018-10-17T19:52:52.063Z,53.10
2018-10-17T19:55:29.352Z,58.20
2018-10-17T19:57:58.495Z,53.90
2018-10-17T20:00:27.848Z,55.47
2018-10-17T20:02:57.785Z,57.33
2018-10-17T20:05:27.059Z,57.90
2018-10-17T20:08:09.455Z,59.20
2018-10-17T20:10:38.558Z,65.43
2018-10-17T20:13:09.611Z,59.57
2018-10-17T20:15:39.185Z,60.93
2018-10-17T20:18:08.559Z,63.77
2018-10-17T20:20:37.666Z,61.70
2018-10-17T20:23:06.937Z,60.97
2018-10-17T20:25:36.199Z,65.33
2018-10-17T20:28:05.457Z,64.83
2018-10-17T20:30:34.905Z,62.03
2018-10-17T20:33:05.653Z,62.80
2018-10-17T20:35:34.749Z,66.23
2018-10-17T20:38:09.166Z,62.43
2018-10-17T20:40:38.311Z,61.97
2018-10-17T20:43:13.937Z,65.47
2018-10-17T20:45:43.170Z,73.03
2018-10-17T20:48:13.227Z,63.73
2018-10-17T20:50:43.820Z,62.17
2018-10-17T20:53:14.887Z,63.60
2018-10-17T20:55:49.700Z,63.60
2018-10-17T20:58:18.954Z,63.63
2018-10-17T21:00:47.959Z,67.53
2018-10-17T21:03:17.052Z,65.60
2018-10-17T21:05:46.150Z,65.03
2018-10-17T21:08:23.873Z,63.77
2018-10-17T21:10:59.428Z,70.27
2018-10-17T21:13:28.657Z,68.77
2018-10-17T21:16:16.958Z,68.23
2018-10-17T21:18:46.329Z,67.77
2018-10-17T21:21:31.808Z,69.13
2018-10-17T21:24:01.008Z,68.50
2018-10-17T21:26:30.137Z,47.60
2018-10-17T21:28:59.314Z,70.57
2018-10-17T21:31:28.422Z,62.93
2018-10-17T21:34:13.303Z,65.37
2018-10-17T21:36:42.415Z,62.80
2018-10-17T21:39:13.345Z,56.23
2018-10-17T21:41:42.729Z,44.90
2018-10-17T21:44:12.862Z,41.47
2018-10-17T21:49:34.345Z,39.83
2018-10-17T21:52:03.471Z,35.37
2018-10-17T21:54:32.631Z,34.03
2018-10-17T21:57:03.047Z,34.50
2018-10-17T21:59:32.198Z,32.97
2018-10-17T22:02:01.405Z,31.53
2018-10-17T22:04:30.820Z,34.30
2018-10-17T22:07:00.040Z,37.00
2018-10-17T22:09:29.276Z,36.37
2018-10-17T22:11:58.281Z,39.93
2018-10-17T22:17:34.976Z,40.23
2018-10-17T22:20:04.251Z,32.37
2018-10-17T22:22:34.057Z,36.73
2018-10-17T22:25:03.208Z,36.13
2018-10-17T22:27:32.230Z,38.03
2018-10-17T22:30:02.482Z,36.20
2018-10-17T22:32:31.596Z,36.30
2018-10-17T22:35:00.747Z,38.30
2018-10-17T22:37:32.107Z,33.90
2018-10-17T22:40:01.565Z,38.73
2018-10-17T22:42:30.666Z,38.57
2018-10-17T22:45:00.043Z,37.93
2018-10-17T22:47:30.397Z,34.77
2018-10-17T22:49:59.482Z,34.97
2018-10-17T22:52:28.604Z,37.50
2018-10-17T22:54:58.470Z,35.77
2018-10-17T22:57:27.588Z,50.47
2018-10-17T22:59:56.656Z,44.30
2018-10-17T23:02:25.831Z,40.83
2018-10-17T23:04:54.989Z,54.60
2018-10-17T23:07:24.086Z,44.90
2018-10-17T23:09:53.788Z,39.13
2018-10-17T23:12:22.854Z,62.47
2018-10-17T23:14:53.787Z,58.30
2018-10-17T23:17:24.649Z,48.87
2018-10-17T23:19:53.833Z,54.33
2018-10-17T23:22:24.584Z,57.83
2018-10-17T23:24:53.706Z,56.93
2018-10-17T23:27:23.949Z,50.77
2018-10-17T23:29:53.086Z,55.03
2018-10-17T23:32:22.261Z,48.77
2018-10-17T23:34:51.320Z,53.03
2018-10-17T23:37:20.448Z,60.03
2018-10-17T23:39:49.560Z,56.83
2018-10-17T23:42:18.660Z,58.73
2018-10-17T23:44:47.994Z,57.27
2018-10-17T23:47:17.175Z,61.83
2018-10-17T23:49:47.732Z,63.37
2018-10-17T23:52:17.080Z,61.20
2018-10-17T23:54:47.577Z,58.33
2018-10-17T23:57:17.754Z,58.20
2018-10-17T23:59:47.996Z,60.53
